createdAt,value
2019-04-25T00:02:26.024Z,100412.19
2019-04-25T00:04:57.868Z,100412.81
2019-04-25T00:07:29.610Z,100411.18
2019-04-25T00:10:01.679Z,100409.48
2019-04-25T00:12:34.901Z,100412.73
2019-04-25T00:15:08.751Z,100408.03
2019-04-25T00:17:41.941Z,100412.90
2019-04-25T00:20:14.664Z,100414.65
2019-04-25T00:22:49.277Z,100420.36
2019-04-25T00:25:32.802Z,100420.88
2019-04-25T00:28:05.918Z,100417.84
2019-04-25T00:30:38.100Z,100422.76
2019-04-25T00:33:11.546Z,100426.28
2019-04-25T00:35:44.654Z,100424.86
2019-04-25T00:38:16.761Z,100429.25
2019-04-25T00:40:48.628Z,100429.88
2019-04-25T00:43:21.479Z,100429.03
2019-04-25T00:45:53.282Z,100428.19
2019-04-25T00:48:25.031Z,100433.33
2019-04-25T00:50:56.870Z,100438.34
2019-04-25T00:53:28.608Z,100441.38
2019-04-25T00:56:01.492Z,100444.05
2019-04-25T00:58:37.858Z,100442.17
2019-04-25T01:01:09.465Z,100432.81
2019-04-25T01:03:43.316Z,100439.99
2019-04-25T01:06:15.010Z,100441.11
2019-04-25T01:08:47.713Z,100439.91
2019-04-25T01:11:21.526Z,100442.45
2019-04-25T01:13:54.431Z,100438.97
2019-04-25T01:16:27.370Z,100442.00
2019-04-25T01:18:59.099Z,100440.08
2019-04-25T01:21:30.909Z,100445.30
2019-04-25T01:24:04.299Z,100449.19
2019-04-25T01:26:36.141Z,100448.87
2019-04-25T01:29:08.949Z,100452.75
2019-04-25T01:31:40.659Z,100446.20
2019-04-25T01:34:14.340Z,100447.79
2019-04-25T01:36:55.032Z,100443.06
2019-04-25T01:39:44.297Z,100440.34
2019-04-25T01:42:17.575Z,100445.61
2019-04-25T01:44:51.624Z,100443.05
2019-04-25T01:47:24.515Z,100446.22
2019-04-25T01:49:56.680Z,100440.66
2019-04-25T01:52:28.773Z,100433.61
2019-04-25T01:55:00.516Z,100440.30
2019-04-25T01:57:33.723Z,100445.16
2019-04-25T02:00:09.881Z,100436.77
2019-04-25T02:02:43.506Z,100433.98
2019-04-25T02:05:16.052Z,100439.72
2019-04-25T02:07:47.595Z,100443.09
2019-04-25T02:10:20.107Z,100432.78
2019-04-25T02:12:55.179Z,100425.38
2019-04-25T02:15:28.461Z,100430.23
2019-04-25T02:18:00.379Z,100425.11
2019-04-25T02:20:33.944Z,100425.83
2019-04-25T02:23:06.192Z,100416.47
2019-04-25T02:25:38.235Z,100423.28
2019-04-25T02:28:09.997Z,100416.11
2019-04-25T02:30:41.738Z,100412.09
2019-04-25T02:33:14.239Z,100418.06
2019-04-25T02:35:46.912Z,100410.77
2019-04-25T02:38:18.995Z,100406.39
2019-04-25T02:40:50.907Z,100413.08
2019-04-25T02:43:23.940Z,100412.97
2019-04-25T02:46:15.218Z,100412.48
2019-04-25T02:49:09.560Z,100421.13
2019-04-25T02:51:42.282Z,100420.77
2019-04-25T02:54:14.163Z,100427.80
2019-04-25T02:56:46.755Z,100434.61
2019-04-25T02:59:18.765Z,100437.05
2019-04-25T03:01:50.507Z,100449.34
2019-04-25T03:04:24.075Z,100450.91
2019-04-25T03:06:57.152Z,100463.66
2019-04-25T03:09:28.821Z,100469.50
2019-04-25T03:12:01.767Z,100493.38
2019-04-25T03:14:35.200Z,100503.02
2019-04-25T03:17:09.838Z,100487.77
2019-04-25T03:19:54.336Z,100466.12
2019-04-25T03:22:30.445Z,100465.39
2019-04-25T03:25:04.514Z,100452.77
2019-04-25T03:27:35.442Z,100452.03
2019-04-25T03:30:13.654Z,100460.89
2019-04-25T03:32:45.134Z,100462.06
2019-04-25T03:35:16.545Z,100467.52
2019-04-25T03:37:48.106Z,100465.95
2019-04-25T03:40:19.910Z,100468.56
2019-04-25T03:42:51.463Z,100476.36
2019-04-25T03:45:23.723Z,100474.72
2019-04-25T03:47:55.638Z,100475.80
2019-04-25T03:50:27.443Z,100469.25
2019-04-25T03:52:59.255Z,100467.80
2019-04-25T03:55:35.562Z,100467.09
2019-04-25T03:58:09.404Z,100464.22
2019-04-25T04:00:39.684Z,100471.56
2019-04-25T04:03:11.508Z,100476.65
2019-04-25T04:05:44.171Z,100472.65
2019-04-25T04:08:15.927Z,100485.09
2019-04-25T04:10:47.626Z,100477.05
2019-04-25T04:13:19.382Z,100470.67
2019-04-25T04:15:51.114Z,100471.23
2019-04-25T04:18:40.566Z,100483.16
2019-04-25T04:21:20.307Z,100497.41
2019-04-25T04:23:54.216Z,100500.27
2019-04-25T04:26:27.051Z,100490.64
2019-04-25T04:28:58.796Z,100487.76
2019-04-25T04:31:33.473Z,100499.48
2019-04-25T04:34:05.365Z,100503.51
2019-04-25T04:36:37.098Z,100499.04
2019-04-25T04:39:09.970Z,100491.04
2019-04-25T04:41:43.327Z,100486.16
2019-04-25T04:44:16.539Z,100503.27
2019-04-25T04:46:48.189Z,100501.30
2019-04-25T04:49:21.933Z,100503.44
2019-04-25T04:51:54.136Z,100498.42
2019-04-25T04:54:25.896Z,100505.96
2019-04-25T04:56:57.645Z,100503.38
2019-04-25T04:59:29.396Z,100498.48
2019-04-25T05:02:03.342Z,100497.95
2019-04-25T05:04:53.529Z,100509.54
2019-04-25T05:07:39.189Z,100505.73
2019-04-25T05:10:11.371Z,100508.61
2019-04-25T05:12:43.764Z,100514.91
2019-04-25T05:15:16.923Z,100509.26
2019-04-25T05:17:49.535Z,100503.38
2019-04-25T05:20:22.269Z,100500.86
2019-04-25T05:22:55.036Z,100503.80
2019-04-25T05:25:26.931Z,100503.52
2019-04-25T05:28:02.893Z,100510.87
2019-04-25T05:30:40.092Z,100507.23
2019-04-25T05:33:11.795Z,100511.09
2019-04-25T05:35:44.050Z,100514.09
2019-04-25T05:38:17.684Z,100512.89
2019-04-25T05:40:54.078Z,100519.89
2019-04-25T05:43:27.509Z,100526.88
2019-04-25T05:45:59.960Z,100541.69
2019-04-25T05:48:31.806Z,100544.30
2019-04-25T05:51:03.963Z,100548.31
2019-04-25T05:53:36.213Z,100548.72
2019-04-25T05:56:07.954Z,100556.75
2019-04-25T05:58:39.801Z,100563.13
2019-04-25T06:01:13.315Z,100563.38
2019-04-25T06:03:44.799Z,100568.15
2019-04-25T06:06:17.479Z,100580.14
2019-04-25T06:09:04.135Z,100576.33
2019-04-25T06:11:43.805Z,100568.49
2019-04-25T06:14:18.257Z,100568.08
2019-04-25T06:16:53.536Z,100574.19
2019-04-25T06:19:43.512Z,100570.23
2019-04-25T06:22:24.216Z,100573.02
2019-04-25T06:24:57.673Z,100574.70
2019-04-25T06:27:35.084Z,100568.05
2019-04-25T06:30:10.705Z,100565.05
2019-04-25T06:32:43.744Z,100565.75
2019-04-25T06:35:15.702Z,100565.75
2019-04-25T06:37:47.489Z,100573.38
2019-04-25T06:40:20.561Z,100571.13
2019-04-25T06:42:54.940Z,100579.37
2019-04-25T06:45:34.449Z,100577.55
2019-04-25T06:48:08.373Z,100577.37
2019-04-25T06:50:40.009Z,100586.51
2019-04-25T06:53:13.542Z,100585.63
2019-04-25T06:55:45.110Z,100579.87
2019-04-25T06:58:16.857Z,100584.77
2019-04-25T07:00:57.983Z,100582.23
2019-04-25T07:03:22.807Z,100593.89
2019-04-25T07:05:54.864Z,100594.30
2019-04-25T07:08:26.925Z,100596.10
2019-04-25T07:10:59.651Z,100597.39
2019-04-25T07:13:34.180Z,100604.04
2019-04-25T07:16:04.751Z,100602.08
2019-04-25T07:18:37.386Z,100603.45
2019-04-25T07:21:09.091Z,100610.02
2019-04-25T07:23:41.240Z,100616.11
2019-04-25T07:26:16.362Z,100620.34
2019-04-25T07:29:05.880Z,100612.09
2019-04-25T07:31:44.268Z,100618.92
2019-04-25T07:34:17.810Z,100623.87
2019-04-25T07:36:49.506Z,100625.77
2019-04-25T07:39:23.536Z,100625.38
2019-04-25T07:41:55.246Z,100632.95
2019-04-25T07:44:38.137Z,100630.75
2019-04-25T07:47:01.487Z,100625.77
2019-04-25T07:49:34.562Z,100618.05
2019-04-25T07:52:08.213Z,100624.67
2019-04-25T07:54:40.739Z,100624.94
2019-04-25T07:57:13.538Z,100626.88
2019-04-25T07:59:45.749Z,100626.98
2019-04-25T08:02:17.869Z,100634.31
2019-04-25T08:04:50.847Z,100627.55
2019-04-25T08:07:23.740Z,100640.84
2019-04-25T08:09:55.852Z,100630.15
2019-04-25T08:12:28.359Z,100633.48
2019-04-25T08:15:04.928Z,100642.44
2019-04-25T08:17:45.589Z,100639.36
2019-04-25T08:20:18.178Z,100635.87
2019-04-25T08:22:56.559Z,100644.95
2019-04-25T08:25:24.853Z,100645.99
2019-04-25T08:27:56.632Z,100643.02
2019-04-25T08:30:29.755Z,100633.03
2019-04-25T08:33:01.781Z,100633.03
2019-04-25T08:35:35.482Z,100655.59
2019-04-25T08:38:08.259Z,100656.23
2019-04-25T08:40:40.437Z,100650.15
2019-04-25T08:43:12.380Z,100646.53
2019-04-25T08:45:44.324Z,100651.09
2019-04-25T08:48:16.177Z,100643.95
2019-04-25T08:51:01.517Z,100641.14
2019-04-25T08:53:41.003Z,100637.54
2019-04-25T08:56:15.021Z,100644.15
2019-04-25T08:58:46.745Z,100642.47
2019-04-25T09:01:18.367Z,100640.56
2019-04-25T09:03:57.555Z,100644.48
2019-04-25T09:06:29.231Z,100657.73
2019-04-25T09:09:01.369Z,100662.27
2019-04-25T09:11:37.966Z,100664.78
2019-04-25T09:14:08.522Z,100664.02
2019-04-25T09:16:40.278Z,100658.66
2019-04-25T09:19:12.026Z,100660.30
2019-04-25T09:21:48.125Z,100661.29
2019-04-25T09:24:17.423Z,100659.41
2019-04-25T09:26:50.097Z,100661.95
2019-04-25T09:29:23.360Z,100666.64
2019-04-25T09:31:55.699Z,100656.73
2019-04-25T09:34:27.452Z,100652.41
2019-04-25T09:36:59.204Z,100643.86
2019-04-25T09:39:38.999Z,100645.75
2019-04-25T09:42:10.833Z,100652.27
2019-04-25T09:44:53.703Z,100653.11
2019-04-25T09:47:25.784Z,100655.09
2019-04-25T09:49:58.101Z,100651.72
2019-04-25T09:52:29.762Z,100652.06
2019-04-25T09:55:06.055Z,100647.00
2019-04-25T09:57:43.445Z,100646.02
2019-04-25T10:00:34.469Z,100653.64
2019-04-25T10:03:06.914Z,100654.07
2019-04-25T10:05:38.792Z,100660.12
2019-04-25T10:08:10.713Z,100663.32
2019-04-25T10:10:43.055Z,100652.98
2019-04-25T10:13:14.812Z,100656.91
2019-04-25T10:16:05.072Z,100654.70
2019-04-25T10:18:39.165Z,100656.38
2019-04-25T10:21:14.291Z,100660.78
2019-04-25T10:23:48.261Z,100660.80
2019-04-25T10:26:22.932Z,100658.59
2019-04-25T10:28:54.570Z,100661.51
2019-04-25T10:31:26.363Z,100652.80
2019-04-25T10:33:58.101Z,100646.32
2019-04-25T10:36:30.016Z,100649.90
2019-04-25T10:39:07.898Z,100646.81
2019-04-25T10:41:36.739Z,100647.82
2019-04-25T10:44:09.715Z,100647.25
2019-04-25T10:46:41.789Z,100652.29
2019-04-25T10:49:14.520Z,100658.81
2019-04-25T10:51:46.556Z,100648.40
2019-04-25T10:54:18.319Z,100649.46
2019-04-25T10:56:50.091Z,100646.06
2019-04-25T10:59:23.477Z,100647.96
2019-04-25T11:01:55.443Z,100647.03
2019-04-25T11:04:28.831Z,100644.54
2019-04-25T11:07:00.494Z,100645.35
2019-04-25T11:09:34.050Z,100644.81
2019-04-25T11:12:08.702Z,100646.41
2019-04-25T11:14:40.930Z,100644.11
2019-04-25T11:17:15.300Z,100648.20
2019-04-25T11:19:46.826Z,100644.94
2019-04-25T11:22:18.745Z,100645.88
2019-04-25T11:24:50.745Z,100639.68
2019-04-25T11:27:27.401Z,100637.36
2019-04-25T11:30:09.219Z,100636.96
2019-04-25T11:32:33.907Z,100639.69
2019-04-25T11:35:07.798Z,100634.94
2019-04-25T11:37:39.346Z,100634.40
2019-04-25T11:40:16.650Z,100636.09
2019-04-25T11:42:48.388Z,100636.73
2019-04-25T11:45:20.585Z,100638.41
2019-04-25T11:47:53.833Z,100636.30
2019-04-25T11:50:26.591Z,100637.48
2019-04-25T11:52:58.854Z,100635.73
2019-04-25T11:55:30.676Z,100631.89
2019-04-25T11:58:03.704Z,100634.94
2019-04-25T12:00:36.155Z,100636.70
2019-04-25T12:03:08.497Z,100640.25
2019-04-25T12:05:40.160Z,100633.66
2019-04-25T12:08:13.446Z,100637.54
2019-04-25T12:10:46.571Z,100644.01
2019-04-25T12:13:18.766Z,100644.08
2019-04-25T12:15:50.525Z,100645.36
2019-04-25T12:18:22.265Z,100646.61
2019-04-25T12:20:55.429Z,100648.82
2019-04-25T12:23:27.362Z,100645.98
2019-04-25T12:25:59.104Z,100643.33
2019-04-25T12:28:31.720Z,100647.55
2019-04-25T12:31:03.572Z,100649.78
2019-04-25T12:33:35.322Z,100647.24
2019-04-25T12:36:07.330Z,100644.70
2019-04-25T12:38:39.077Z,100642.16
2019-04-25T12:41:10.824Z,100640.48
2019-04-25T12:43:45.643Z,100641.50
2019-04-25T12:46:22.343Z,100644.62
2019-04-25T12:48:54.121Z,100648.72
2019-04-25T12:51:25.859Z,100649.47
2019-04-25T12:53:58.029Z,100645.45
2019-04-25T12:56:30.018Z,100638.21
2019-04-25T12:59:01.798Z,100638.31
2019-04-25T13:01:33.543Z,100634.72
2019-04-25T13:04:06.354Z,100635.05
2019-04-25T13:06:37.901Z,100632.40
2019-04-25T13:09:10.867Z,100627.89
2019-04-25T13:11:43.456Z,100630.92
2019-04-25T13:14:17.519Z,100639.89
2019-04-25T13:16:49.603Z,100631.95
2019-04-25T13:19:24.649Z,100631.98
2019-04-25T13:21:54.617Z,100629.34
2019-04-25T13:24:26.472Z,100630.94
2019-04-25T13:27:03.605Z,100625.95
2019-04-25T13:29:53.842Z,100630.73
2019-04-25T13:32:25.455Z,100626.52
2019-04-25T13:34:58.782Z,100632.80
2019-04-25T13:37:30.552Z,100634.60
2019-04-25T13:40:02.207Z,100627.51
2019-04-25T13:42:34.227Z,100621.67
2019-04-25T13:45:09.105Z,100620.41
2019-04-25T13:47:42.380Z,100618.20
2019-04-25T13:50:15.477Z,100612.73
2019-04-25T13:52:47.161Z,100613.59
2019-04-25T13:55:18.924Z,100608.34
2019-04-25T13:57:50.677Z,100605.34
2019-04-25T14:00:26.056Z,100607.59
2019-04-25T14:02:58.573Z,100603.02
2019-04-25T14:05:30.581Z,100595.23
2019-04-25T14:08:02.242Z,100597.88
2019-04-25T14:10:34.579Z,100591.22
2019-04-25T14:13:07.189Z,100590.59
2019-04-25T14:15:43.119Z,100595.67
2019-04-25T14:18:20.017Z,100591.06
2019-04-25T14:20:53.488Z,100593.17
2019-04-25T14:23:25.761Z,100594.03
2019-04-25T14:25:57.481Z,100591.92
2019-04-25T14:28:31.557Z,100588.02
2019-04-25T14:31:03.329Z,100586.89
2019-04-25T14:33:35.457Z,100593.51
2019-04-25T14:36:07.291Z,100598.13
2019-04-25T14:38:39.048Z,100594.84
2019-04-25T14:41:10.788Z,100584.86
2019-04-25T14:43:42.534Z,100586.20
2019-04-25T14:46:14.292Z,100589.30
2019-04-25T14:48:46.064Z,100583.30
2019-04-25T14:51:17.810Z,100585.50
2019-04-25T14:53:50.034Z,100579.36
2019-04-25T14:56:23.710Z,100580.27
2019-04-25T14:58:55.542Z,100577.19
2019-04-25T15:01:28.094Z,100574.68
2019-04-25T15:04:00.082Z,100578.84
2019-04-25T15:06:32.047Z,100579.78
2019-04-25T15:09:05.250Z,100577.36
2019-04-25T15:11:37.765Z,100579.78
2019-04-25T15:14:09.525Z,100574.51
2019-04-25T15:16:41.260Z,100574.61
2019-04-25T15:19:13.087Z,100570.62
2019-04-25T15:21:44.726Z,100572.63
2019-04-25T15:24:16.571Z,100567.28
2019-04-25T15:26:48.327Z,100567.28
2019-04-25T15:29:20.070Z,100564.94
2019-04-25T15:31:56.157Z,100568.10
2019-04-25T15:34:28.072Z,100566.61
2019-04-25T15:37:07.427Z,100562.87
2019-04-25T15:39:42.038Z,100566.88
2019-04-25T15:42:15.343Z,100574.54
2019-04-25T15:44:58.368Z,100571.53
2019-04-25T15:47:31.900Z,100568.34
2019-04-25T15:50:06.123Z,100575.10
2019-04-25T15:52:39.134Z,100569.91
2019-04-25T15:55:10.896Z,100570.23
2019-04-25T15:57:45.724Z,100574.12
2019-04-25T16:00:20.949Z,100568.97
2019-04-25T16:02:52.816Z,100569.44
2019-04-25T16:05:26.451Z,100570.69
2019-04-25T16:07:58.632Z,100565.60
2019-04-25T16:10:30.511Z,100572.58
2019-04-25T16:13:02.472Z,100567.92
2019-04-25T16:15:34.120Z,100565.34
2019-04-25T16:18:07.585Z,100566.65
2019-04-25T16:20:57.521Z,100562.63
2019-04-25T16:23:30.252Z,100566.06
2019-04-25T16:26:02.326Z,100566.64
2019-04-25T16:28:34.123Z,100573.88
2019-04-25T16:31:12.362Z,100567.58
2019-04-25T16:33:49.993Z,100566.52
2019-04-25T16:36:24.004Z,100564.89
2019-04-25T16:38:58.714Z,100568.23
2019-04-25T16:41:31.989Z,100562.83
2019-04-25T16:44:14.846Z,100565.76
2019-04-25T16:46:46.503Z,100568.89
2019-04-25T16:49:23.238Z,100570.78
2019-04-25T16:51:57.600Z,100575.59
2019-04-25T16:54:30.401Z,100577.41
2019-04-25T16:57:08.500Z,100575.69
2019-04-25T16:59:45.043Z,100574.91
2019-04-25T17:02:32.500Z,100573.42
2019-04-25T17:04:55.678Z,100573.03
2019-04-25T17:07:30.326Z,100576.08
2019-04-25T17:10:03.516Z,100577.89
2019-04-25T17:12:38.463Z,100579.33
2019-04-25T17:15:20.032Z,100581.12
2019-04-25T17:18:09.861Z,100581.05
2019-04-25T17:20:58.792Z,100583.92
2019-04-25T17:23:34.430Z,100587.59
2019-04-25T17:26:15.172Z,100586.86
2019-04-25T17:28:56.504Z,100590.44
2019-04-25T17:31:39.664Z,100593.27
2019-04-25T17:34:25.525Z,100588.59
2019-04-25T17:37:00.336Z,100590.57
2019-04-25T17:39:42.227Z,100593.96
2019-04-25T17:42:18.693Z,100593.78
2019-04-25T17:44:57.722Z,100597.34
2019-04-25T17:47:30.657Z,100596.66
2019-04-25T17:50:06.578Z,100594.77
2019-04-25T17:52:38.346Z,100599.20
2019-04-25T17:55:10.469Z,100600.36
2019-04-25T17:57:43.629Z,100599.06
2019-04-25T18:00:22.785Z,100599.97
2019-04-25T18:02:59.149Z,100602.20
2019-04-25T18:05:34.158Z,100611.22
2019-04-25T18:08:15.007Z,100607.83
2019-04-25T18:10:54.554Z,100612.18
2019-04-25T18:13:31.215Z,100609.13
2019-04-25T18:16:24.668Z,100615.55
2019-04-25T18:19:14.697Z,100618.22
2019-04-25T18:21:49.043Z,100617.30
2019-04-25T18:24:29.868Z,100615.36
2019-04-25T18:27:22.909Z,100626.41
2019-04-25T18:29:54.476Z,100619.91
2019-04-25T18:32:27.908Z,100621.47
2019-04-25T18:35:01.495Z,100622.07
2019-04-25T18:37:37.166Z,100626.72
2019-04-25T18:40:21.043Z,100629.13
2019-04-25T18:43:05.269Z,100630.38
2019-04-25T18:45:40.282Z,100635.48
2019-04-25T18:48:12.217Z,100627.25
2019-04-25T18:50:44.985Z,100633.22
2019-04-25T18:53:34.721Z,100629.39
2019-04-25T18:56:09.386Z,100630.54
2019-04-25T18:58:43.986Z,100634.41
2019-04-25T19:01:18.689Z,100633.98
2019-04-25T19:03:54.922Z,100640.47
2019-04-25T19:06:27.760Z,100637.16
2019-04-25T19:08:59.536Z,100636.77
2019-04-25T19:11:31.763Z,100633.18
2019-04-25T19:14:03.554Z,100638.60
2019-04-25T19:16:35.309Z,100632.59
2019-04-25T19:19:07.399Z,100624.19
2019-04-25T19:21:40.227Z,100624.16
2019-04-25T19:24:12.414Z,100622.78
2019-04-25T19:26:44.780Z,100618.93
2019-04-25T19:29:18.652Z,100624.96
2019-04-25T19:31:53.297Z,100627.89
2019-04-25T19:34:30.596Z,100629.16
2019-04-25T19:37:04.649Z,100624.06
2019-04-25T19:39:40.558Z,100631.79
2019-04-25T19:42:19.634Z,100627.81
2019-04-25T19:44:51.432Z,100632.58
2019-04-25T19:47:24.538Z,100626.64
2019-04-25T19:49:58.246Z,100625.48
2019-04-25T19:52:30.031Z,100623.06
2019-04-25T19:55:01.890Z,100625.73
2019-04-25T19:57:33.842Z,100619.45
2019-04-25T20:00:07.776Z,100615.77
2019-04-25T20:02:47.439Z,100616.69
2019-04-25T20:05:20.926Z,100618.14
2019-04-25T20:07:58.510Z,100614.97
2019-04-25T20:10:44.155Z,100618.80
2019-04-25T20:13:17.238Z,100614.02
2019-04-25T20:15:49.568Z,100618.23
2019-04-25T20:18:21.425Z,100614.90
2019-04-25T20:20:54.089Z,100611.67
2019-04-25T20:23:25.832Z,100611.32
2019-04-25T20:25:57.653Z,100614.78
2019-04-25T20:28:29.315Z,100618.12
2019-04-25T20:31:01.356Z,100615.09
2019-04-25T20:33:33.208Z,100609.66
2019-04-25T20:36:17.023Z,100609.91
2019-04-25T20:38:38.843Z,100613.71
2019-04-25T20:41:14.057Z,100611.08
2019-04-25T20:43:48.891Z,100603.05
2019-04-25T20:46:20.560Z,100609.53
2019-04-25T20:48:52.350Z,100601.48
2019-04-25T20:51:26.837Z,100603.10
2019-04-25T20:53:59.815Z,100600.93
2019-04-25T20:56:31.629Z,100600.01
2019-04-25T20:59:04.381Z,100606.50
2019-04-25T21:01:36.217Z,100607.01
2019-04-25T21:04:13.227Z,100605.71
2019-04-25T21:06:43.291Z,100609.25
2019-04-25T21:09:16.084Z,100602.09
2019-04-25T21:11:53.319Z,100602.95
2019-04-25T21:14:36.003Z,100601.51
2019-04-25T21:17:23.258Z,100601.28
2019-04-25T21:19:58.439Z,100599.10
2019-04-25T21:22:36.736Z,100602.44
2019-04-25T21:25:13.240Z,100597.97
2019-04-25T21:27:44.858Z,100603.33
2019-04-25T21:30:16.707Z,100603.33
2019-04-25T21:32:50.534Z,100603.25
2019-04-25T21:35:23.448Z,100603.25
2019-04-25T21:37:57.463Z,100603.63
2019-04-25T21:40:31.194Z,100599.61
2019-04-25T21:43:10.714Z,100597.27
2019-04-25T21:45:42.841Z,100596.91
2019-04-25T21:48:14.965Z,100591.39
2019-04-25T21:50:47.291Z,100594.92
2019-04-25T21:53:19.036Z,100597.70
2019-04-25T21:55:51.162Z,100589.44
2019-04-25T21:58:23.480Z,100592.05
2019-04-25T22:00:56.544Z,100587.42
2019-04-25T22:03:31.730Z,100590.26
2019-04-25T22:06:04.991Z,100588.66
2019-04-25T22:08:37.045Z,100591.23
2019-04-25T22:11:11.883Z,100590.27
2019-04-25T22:13:44.514Z,100590.53
2019-04-25T22:16:16.303Z,100583.20
2019-04-25T22:18:48.922Z,100590.14
2019-04-25T22:21:23.319Z,100582.59
2019-04-25T22:24:05.975Z,100575.89
2019-04-25T22:26:28.806Z,100577.13
2019-04-25T22:29:01.282Z,100572.98
2019-04-25T22:31:37.280Z,100577.84
2019-04-25T22:34:15.294Z,100572.39
2019-04-25T22:36:47.513Z,100565.91
2019-04-25T22:39:19.284Z,100571.27
2019-04-25T22:41:51.465Z,100563.00
2019-04-25T22:44:23.554Z,100562.41
2019-04-25T22:46:57.142Z,100564.11
2019-04-25T22:49:28.793Z,100566.28
2019-04-25T22:52:01.648Z,100567.86
2019-04-25T22:54:33.847Z,100571.89
2019-04-25T22:57:06.331Z,100568.87
2019-04-25T22:59:38.614Z,100563.23
2019-04-25T23:02:14.688Z,100570.44
2019-04-25T23:05:04.780Z,100563.59
2019-04-25T23:07:27.366Z,100567.26
2019-04-25T23:09:59.483Z,100563.22
2019-04-25T23:12:31.804Z,100558.84
2019-04-25T23:15:05.089Z,100556.93
2019-04-25T23:17:37.507Z,100566.17
2019-04-25T23:20:10.210Z,100564.45
2019-04-25T23:22:41.995Z,100557.88
2019-04-25T23:25:16.534Z,100557.05
2019-04-25T23:27:47.951Z,100554.71
2019-04-25T23:30:22.980Z,100557.88
2019-04-25T23:32:54.822Z,100559.22
2019-04-25T23:35:30.295Z,100555.45
2019-04-25T23:38:00.201Z,100553.98
2019-04-25T23:40:31.942Z,100553.02
2019-04-25T23:43:05.204Z,100550.47
2019-04-25T23:45:37.292Z,100548.99
2019-04-25T23:48:10.289Z,100540.70
2019-04-25T23:50:42.033Z,100538.64
2019-04-25T23:53:14.931Z,100538.77
2019-04-25T23:55:46.801Z,100536.34
2019-04-25T23:58:18.540Z,100534.64
